WITT/BTJ METAR and TAF weather

Enter ICAO airport designator
Station Type Date Time Source
WITT METAR UTC NOAA

Error!


Station Type Date Time Source
WITT Decoded METAR UTC NOAA

Error!

Station Type Date Time Source
WITT TAF 2021/06/22 18:00 UTC NOAA

TAF WITT 221700Z 2218/2318 15006KT 9999 SCT018
BECMG 2307/2309 33005KT
BECMG 2315/2317 14005KT

Example: see airport list